createdAt,value
2022-10-18T00:00:47.040Z,100253.13
2022-10-18T00:03:14.102Z,100201.75
2022-10-18T00:05:40.890Z,100242.28
2022-10-18T00:08:07.849Z,100251.47
2022-10-18T00:10:54.676Z,100223.31
2022-10-18T00:13:22.470Z,100237.66
2022-10-18T00:16:00.746Z,100250.94
2022-10-18T00:18:28.587Z,100209.06
2022-10-18T00:21:03.060Z,100233.53
2022-10-18T00:23:32.098Z,100222.19
2022-10-18T00:26:06.857Z,100207.88
2022-10-18T00:28:35.310Z,100232.00
2022-10-18T00:31:23.322Z,100221.91
2022-10-18T00:33:53.393Z,100213.91
2022-10-18T00:36:21.063Z,100214.19
2022-10-18T00:38:49.448Z,100213.66
2022-10-18T00:41:19.135Z,100210.66
2022-10-18T00:44:06.365Z,100200.16
2022-10-18T00:46:39.036Z,100220.31
2022-10-18T00:49:17.304Z,100204.38
2022-10-18T00:51:49.800Z,100224.25
2022-10-18T00:54:19.396Z,100203.81
2022-10-18T00:56:46.565Z,100217.44
2022-10-18T00:59:16.103Z,100198.13
2022-10-18T01:01:43.796Z,100199.69
2022-10-18T01:04:12.339Z,100205.06
2022-10-18T01:06:50.944Z,100202.59
2022-10-18T01:09:20.755Z,100226.47
2022-10-18T01:12:15.413Z,100222.31
2022-10-18T01:15:30.471Z,100216.25
2022-10-18T01:18:00.624Z,100212.69
2022-10-18T01:21:02.350Z,100190.06
2022-10-18T01:23:47.982Z,100218.44
2022-10-18T01:26:20.701Z,100221.34
2022-10-18T01:28:50.639Z,100202.66
2022-10-18T01:31:28.631Z,100217.16
2022-10-18T01:34:08.306Z,100199.53
2022-10-18T01:36:49.785Z,100204.44
2022-10-18T01:39:23.672Z,100194.41
2022-10-18T01:41:53.390Z,100200.72
2022-10-18T01:44:25.623Z,100189.50
2022-10-18T01:46:55.113Z,100185.78
2022-10-18T01:49:21.951Z,100189.69
2022-10-18T01:51:48.902Z,100191.69
2022-10-18T01:54:22.018Z,100209.00
2022-10-18T01:56:58.670Z,100202.66
2022-10-18T01:59:54.773Z,100182.88
2022-10-18T02:02:36.940Z,100186.22
2022-10-18T02:05:31.794Z,100206.75
2022-10-18T02:08:22.442Z,100181.53
2022-10-18T02:10:59.227Z,100189.63
2022-10-18T02:13:33.466Z,100200.47
2022-10-18T02:16:10.240Z,100193.28
2022-10-18T02:18:49.923Z,100187.19
2022-10-18T02:21:22.609Z,100194.66
2022-10-18T02:23:50.213Z,100180.44
2022-10-18T02:26:17.301Z,100177.72
2022-10-18T02:28:45.780Z,100203.28
2022-10-18T02:31:44.229Z,100189.41
2022-10-18T02:34:34.665Z,100176.50
2022-10-18T02:37:02.312Z,100179.81
2022-10-18T02:39:42.604Z,100169.44
2022-10-18T02:42:11.118Z,100176.50
2022-10-18T02:44:38.810Z,100190.41
2022-10-18T02:47:07.904Z,100221.50
2022-10-18T02:49:34.799Z,100175.94
2022-10-18T02:52:01.723Z,100186.31
2022-10-18T02:54:28.582Z,100171.13
2022-10-18T02:56:55.500Z,100167.34
2022-10-18T02:59:22.400Z,100163.78
2022-10-18T03:01:49.517Z,100181.50
2022-10-18T03:04:16.446Z,100170.03
2022-10-18T03:06:43.338Z,100187.44
2022-10-18T03:09:10.380Z,100160.41
2022-10-18T03:11:37.310Z,100185.94
2022-10-18T03:14:04.225Z,100163.38
2022-10-18T03:16:31.128Z,100140.16
2022-10-18T03:18:57.943Z,100137.78
2022-10-18T03:21:24.871Z,100132.69
2022-10-18T03:23:51.800Z,100136.41
2022-10-18T03:26:18.745Z,100113.13
2022-10-18T03:28:45.654Z,100126.97
2022-10-18T03:31:12.672Z,100122.59
2022-10-18T03:33:39.623Z,100116.75
2022-10-18T03:36:06.481Z,100129.34
2022-10-18T03:38:33.280Z,100126.13
2022-10-18T03:41:00.290Z,100116.66
2022-10-18T03:43:27.056Z,100119.38
2022-10-18T03:45:54.260Z,100132.81
2022-10-18T03:48:21.149Z,100127.22
2022-10-18T03:50:48.046Z,100121.81
2022-10-18T03:53:14.885Z,100137.78
2022-10-18T03:55:41.762Z,100124.88
2022-10-18T03:58:09.250Z,100109.81
2022-10-18T04:00:36.609Z,100113.13
2022-10-18T04:03:03.914Z,100126.34
2022-10-18T04:05:30.733Z,100124.16
2022-10-18T04:07:57.972Z,100118.94
2022-10-18T04:10:45.378Z,100113.34
2022-10-18T04:13:12.349Z,100121.44
2022-10-18T04:15:39.161Z,100109.13
2022-10-18T04:18:06.315Z,100127.94
2022-10-18T04:20:33.134Z,100133.19
2022-10-18T04:22:59.958Z,100117.19
2022-10-18T04:25:26.826Z,100125.19
2022-10-18T04:27:53.653Z,100131.06
2022-10-18T04:30:20.492Z,100099.03
2022-10-18T04:32:47.459Z,100110.09
2022-10-18T04:35:14.276Z,100125.63
2022-10-18T04:38:04.186Z,100122.38
2022-10-18T04:40:31.056Z,100148.31
2022-10-18T04:42:57.898Z,100114.75
2022-10-18T04:45:24.734Z,100130.06
2022-10-18T04:47:51.547Z,100100.81
2022-10-18T04:50:18.669Z,100128.22
2022-10-18T04:52:45.550Z,100127.44
2022-10-18T04:55:12.490Z,100126.72
2022-10-18T04:57:39.682Z,100121.66
2022-10-18T05:00:07.036Z,100134.50
2022-10-18T05:02:34.224Z,100129.31
2022-10-18T05:05:01.281Z,100139.47
2022-10-18T05:07:28.153Z,100131.09
2022-10-18T05:09:55.013Z,100123.69
2022-10-18T05:12:21.804Z,100126.16
2022-10-18T05:14:48.932Z,100140.34
2022-10-18T05:17:15.726Z,100114.38
2022-10-18T05:19:42.635Z,100138.28
2022-10-18T05:22:09.539Z,100135.03
2022-10-18T05:24:36.357Z,100119.81
2022-10-18T05:27:03.239Z,100138.47
2022-10-18T05:29:30.215Z,100129.16
2022-10-18T05:31:57.016Z,100098.00
2022-10-18T05:34:23.972Z,100104.56
2022-10-18T05:36:50.813Z,100107.94
2022-10-18T05:39:40.882Z,100114.06
2022-10-18T05:42:07.942Z,100123.69
2022-10-18T05:44:35.124Z,100114.50
2022-10-18T05:47:02.047Z,100101.38
2022-10-18T05:49:28.893Z,100115.19
2022-10-18T05:51:55.750Z,100104.53
2022-10-18T05:54:25.344Z,100088.56
2022-10-18T05:56:56.838Z,100102.00
2022-10-18T05:59:24.273Z,100089.25
2022-10-18T06:01:51.022Z,100100.53
2022-10-18T06:04:37.936Z,100096.91
2022-10-18T06:07:23.944Z,100093.59
2022-10-18T06:09:51.824Z,100089.03
2022-10-18T06:12:28.438Z,100090.56
2022-10-18T06:15:16.370Z,100096.22
2022-10-18T06:17:45.276Z,100086.16
2022-10-18T06:20:16.582Z,100082.09
2022-10-18T06:22:44.554Z,100094.44
2022-10-18T06:25:14.575Z,100084.59
2022-10-18T06:27:41.997Z,100083.91
2022-10-18T06:30:12.343Z,100083.47
2022-10-18T06:32:39.272Z,100080.03
2022-10-18T06:35:06.632Z,100078.22
2022-10-18T06:37:34.382Z,100067.66
2022-10-18T06:40:27.431Z,100072.63
2022-10-18T06:43:00.417Z,100058.38
2022-10-18T06:45:27.617Z,100076.06
2022-10-18T06:47:57.459Z,100057.25
2022-10-18T06:50:24.448Z,100068.19
2022-10-18T06:52:54.988Z,100048.94
2022-10-18T06:55:31.432Z,100053.09
2022-10-18T06:57:58.483Z,100039.91
2022-10-18T07:00:32.790Z,100023.66
2022-10-18T07:03:02.861Z,100044.03
2022-10-18T07:08:03.804Z,100036.47
2022-10-18T07:10:41.174Z,100045.13
2022-10-18T07:13:30.979Z,100025.88
2022-10-18T07:16:18.712Z,100027.00
2022-10-18T07:18:49.484Z,100000.56
2022-10-18T07:21:21.558Z,99993.16
2022-10-18T07:23:49.500Z,99978.00
2022-10-18T07:26:52.257Z,99966.59
2022-10-18T07:29:19.416Z,99942.13
2022-10-18T07:31:46.444Z,99950.75
2022-10-18T07:34:45.445Z,99940.41
2022-10-18T07:37:18.411Z,99943.91
2022-10-18T07:39:45.784Z,99970.84
2022-10-18T07:42:13.020Z,99955.69
2022-10-18T07:44:42.647Z,99961.59
2022-10-18T07:47:18.283Z,99936.25
2022-10-18T07:49:45.192Z,99945.97
2022-10-18T07:52:12.453Z,99948.19
2022-10-18T07:54:39.864Z,99949.78
2022-10-18T07:57:09.710Z,99944.38
2022-10-18T07:59:36.621Z,99962.19
2022-10-18T08:02:03.578Z,99948.19
2022-10-18T08:04:31.526Z,99939.91
2022-10-18T08:06:58.380Z,99933.88
2022-10-18T08:09:25.429Z,99947.44
2022-10-18T08:11:52.343Z,99923.94
2022-10-18T08:14:19.228Z,99921.16
2022-10-18T08:16:46.108Z,99923.69
2022-10-18T08:19:13.013Z,99907.06
2022-10-18T08:21:39.886Z,99901.00
2022-10-18T08:24:06.830Z,99903.66
2022-10-18T08:26:36.060Z,99895.59
2022-10-18T08:29:22.557Z,99905.78
2022-10-18T08:31:51.115Z,99901.44
2022-10-18T08:34:24.442Z,99912.00
2022-10-18T08:36:58.805Z,99917.03
2022-10-18T08:39:25.763Z,99861.31
2022-10-18T08:42:18.760Z,99894.28
2022-10-18T08:44:48.828Z,99888.31
2022-10-18T08:47:40.260Z,99897.56
2022-10-18T08:50:17.539Z,99895.41
2022-10-18T08:53:03.559Z,99883.28
2022-10-18T08:55:42.204Z,99886.13
2022-10-18T08:58:25.178Z,99875.22
2022-10-18T09:01:21.501Z,99857.44
2022-10-18T09:03:54.595Z,99866.56
2022-10-18T09:06:44.875Z,99897.34
2022-10-18T09:09:35.583Z,99841.03
2022-10-18T09:12:28.463Z,99836.94
2022-10-18T09:15:12.932Z,99854.78
2022-10-18T09:18:00.125Z,99844.94
2022-10-18T09:20:33.077Z,99846.47
2022-10-18T09:23:34.956Z,99829.22
2022-10-18T09:26:14.582Z,99837.06
2022-10-18T09:28:54.256Z,99808.50
2022-10-18T09:31:33.644Z,99827.03
2022-10-18T09:34:06.634Z,99806.88
2022-10-18T09:36:38.591Z,99783.25
2022-10-18T09:39:17.851Z,99778.91
2022-10-18T09:41:51.345Z,99785.31
2022-10-18T09:44:31.778Z,99779.25
2022-10-18T09:47:17.058Z,99765.19
2022-10-18T09:50:13.216Z,99749.88
2022-10-18T09:52:47.681Z,99737.75
2022-10-18T09:55:31.014Z,99741.69
2022-10-18T09:58:01.980Z,99716.03
2022-10-18T10:00:33.647Z,99715.69
2022-10-18T10:03:01.960Z,99703.56
2022-10-18T10:05:28.819Z,99687.88
2022-10-18T10:08:12.906Z,99697.38
2022-10-18T10:10:45.625Z,99694.09
2022-10-18T10:13:24.824Z,99688.44
2022-10-18T10:16:02.867Z,99663.22
2022-10-18T10:18:33.401Z,99673.97
2022-10-18T10:21:05.861Z,99619.44
2022-10-18T10:23:32.685Z,99660.38
2022-10-18T10:26:02.335Z,99653.13
2022-10-18T10:28:36.651Z,99638.16
2022-10-18T10:31:24.885Z,99634.44
2022-10-18T10:33:59.843Z,99602.63
2022-10-18T10:36:26.995Z,99579.75
2022-10-18T10:39:15.505Z,99593.28
2022-10-18T10:42:04.214Z,99589.38
2022-10-18T10:44:36.883Z,99606.06
2022-10-18T10:47:04.716Z,99596.56
2022-10-18T10:49:43.831Z,99587.38
2022-10-18T10:52:28.065Z,99569.47
2022-10-18T10:55:11.354Z,99569.94
2022-10-18T10:57:49.931Z,99560.00
2022-10-18T11:00:43.534Z,99552.84
2022-10-18T11:03:28.575Z,99545.19
2022-10-18T11:05:56.912Z,99531.91
2022-10-18T11:08:38.934Z,99535.34
2022-10-18T11:11:30.975Z,99517.72
2022-10-18T11:14:26.615Z,99495.78
2022-10-18T11:17:18.370Z,99508.69
2022-10-18T11:20:27.059Z,99494.56
2022-10-18T11:22:56.702Z,99488.66
2022-10-18T11:25:29.069Z,99473.25
2022-10-18T11:28:07.154Z,99459.69
2022-10-18T11:30:48.350Z,99438.38
2022-10-18T11:33:56.166Z,99446.88
2022-10-18T11:36:54.692Z,99437.53
2022-10-18T11:39:51.073Z,99408.94
2022-10-18T11:42:29.183Z,99438.09
2022-10-18T11:45:15.664Z,99422.91
2022-10-18T11:47:52.132Z,99419.19
2022-10-18T11:50:35.079Z,99405.38
2022-10-18T11:53:25.273Z,99412.72
2022-10-18T11:56:29.713Z,99395.63
2022-10-18T11:59:36.501Z,99349.91
2022-10-18T12:02:27.827Z,99355.94
2022-10-18T12:08:13.153Z,99317.22
2022-10-18T12:10:59.897Z,99332.28
2022-10-18T12:13:34.439Z,99305.22
2022-10-18T12:16:05.444Z,99305.19
2022-10-18T12:18:35.379Z,99296.78
2022-10-18T12:21:37.803Z,99275.25
2022-10-18T12:24:14.849Z,99267.44
2022-10-18T12:26:42.221Z,99258.19
2022-10-18T12:29:20.057Z,99261.28
2022-10-18T12:31:51.832Z,99248.50
2022-10-18T12:37:25.473Z,99214.00
2022-10-18T12:40:09.895Z,99196.44
2022-10-18T12:42:46.313Z,99206.44
2022-10-18T12:45:20.052Z,99207.69
2022-10-18T12:47:47.594Z,99192.63
2022-10-18T12:50:32.952Z,99171.59
2022-10-18T12:53:18.562Z,99172.06
2022-10-18T12:55:48.977Z,99170.25
2022-10-18T12:58:25.026Z,99178.91
2022-10-18T13:00:58.468Z,99165.16
2022-10-18T13:03:25.336Z,99145.56
2022-10-18T13:05:53.918Z,99137.59
2022-10-18T13:08:28.003Z,99173.56
2022-10-18T13:11:10.087Z,99141.19
2022-10-18T13:14:01.942Z,99110.84
2022-10-18T13:16:56.780Z,99117.13
2022-10-18T13:20:25.146Z,99105.69
2022-10-18T13:23:10.277Z,99107.84
2022-10-18T13:25:54.355Z,99115.72
2022-10-18T13:28:21.251Z,99112.34
2022-10-18T13:31:03.196Z,99102.50
2022-10-18T13:33:40.757Z,99110.88
2022-10-18T13:36:21.788Z,99110.72
2022-10-18T13:38:50.292Z,99109.69
2022-10-18T13:41:19.267Z,99081.38
2022-10-18T13:44:04.880Z,99091.06
2022-10-18T13:46:38.025Z,99107.47
2022-10-18T13:49:13.924Z,99086.19
2022-10-18T13:51:43.645Z,99056.38
2022-10-18T13:54:19.889Z,99093.22
2022-10-18T13:57:11.202Z,99097.06
2022-10-18T13:59:46.323Z,99098.31
2022-10-18T14:02:57.706Z,99096.03
2022-10-18T14:05:45.578Z,99082.94
2022-10-18T14:08:35.680Z,99091.03
2022-10-18T14:11:24.327Z,99080.97
2022-10-18T14:14:19.235Z,99100.19
2022-10-18T14:16:58.815Z,99092.44
2022-10-18T14:19:25.708Z,99079.91
2022-10-18T14:21:59.560Z,99100.72
2022-10-18T14:24:29.399Z,99073.53
2022-10-18T14:27:27.373Z,99077.56
2022-10-18T14:30:16.503Z,99090.06
2022-10-18T14:32:48.775Z,99084.69
2022-10-18T14:35:32.410Z,99061.03
2022-10-18T14:38:19.047Z,99087.69
2022-10-18T14:40:46.210Z,99096.56
2022-10-18T14:43:18.798Z,99074.78
2022-10-18T14:45:45.998Z,99075.66
2022-10-18T14:48:20.799Z,99075.03
2022-10-18T14:50:55.736Z,99072.66
2022-10-18T14:53:22.949Z,99097.41
2022-10-18T14:55:56.327Z,99056.38
2022-10-18T14:58:23.717Z,99071.94
2022-10-18T15:00:50.779Z,99077.34
2022-10-18T15:03:18.738Z,99078.03
2022-10-18T15:06:01.085Z,99076.00
2022-10-18T15:08:38.776Z,99051.38
2022-10-18T15:11:10.619Z,99068.59
2022-10-18T15:13:56.735Z,99091.09
2022-10-18T15:16:28.367Z,99067.59
2022-10-18T15:19:14.011Z,99062.59
2022-10-18T15:25:30.862Z,99079.41
2022-10-18T15:28:00.692Z,99078.25
2022-10-18T15:30:42.360Z,99057.81
2022-10-18T15:33:26.278Z,99044.63
2022-10-18T15:36:22.636Z,99078.81
2022-10-18T15:38:51.827Z,99054.66
2022-10-18T15:41:54.083Z,99042.16
2022-10-18T15:44:24.861Z,99027.22
2022-10-18T15:46:55.635Z,99041.72
2022-10-18T15:49:41.079Z,99054.66
2022-10-18T15:52:37.874Z,99070.41
2022-10-18T15:55:30.109Z,99037.16
2022-10-18T15:58:25.751Z,99071.63
2022-10-18T16:01:01.097Z,99078.09
2022-10-18T16:03:34.039Z,99049.44
2022-10-18T16:06:18.051Z,99057.63
2022-10-18T16:08:48.686Z,99052.25
2022-10-18T16:11:22.053Z,99062.19
2022-10-18T16:13:50.394Z,99053.78
2022-10-18T16:16:20.766Z,99039.13
2022-10-18T16:18:48.442Z,99040.78
2022-10-18T16:21:40.976Z,99051.50
2022-10-18T16:24:08.454Z,99056.59
2022-10-18T16:26:35.766Z,99041.94
2022-10-18T16:29:04.393Z,99029.69
2022-10-18T16:31:33.598Z,99048.25
2022-10-18T16:34:01.151Z,99027.34
2022-10-18T16:36:32.581Z,99054.91
2022-10-18T16:39:14.186Z,99054.81
2022-10-18T16:41:41.111Z,99025.25
2022-10-18T16:44:22.908Z,99019.97
2022-10-18T16:46:52.584Z,99015.41
2022-10-18T16:49:27.835Z,99021.78
2022-10-18T16:51:55.166Z,99009.44
2022-10-18T16:54:22.797Z,99015.19
2022-10-18T16:56:49.760Z,99007.56
2022-10-18T16:59:31.453Z,99021.22
2022-10-18T17:02:09.994Z,99034.31
2022-10-18T17:04:36.921Z,98979.31
2022-10-18T17:07:04.181Z,99005.53
2022-10-18T17:09:31.213Z,98991.84
2022-10-18T17:12:36.220Z,98959.53
2022-10-18T17:15:03.543Z,99015.09
2022-10-18T17:17:30.873Z,98998.97
2022-10-18T17:20:19.411Z,98989.84
2022-10-18T17:22:46.698Z,99010.44
2022-10-18T17:25:13.496Z,98993.22
2022-10-18T17:27:40.523Z,98990.28
2022-10-18T17:30:08.123Z,99018.50
2022-10-18T17:32:35.018Z,99014.13
2022-10-18T17:35:25.282Z,99005.88
2022-10-18T17:37:52.828Z,98997.38
2022-10-18T17:40:20.157Z,99008.19
2022-10-18T17:42:47.408Z,98993.53
2022-10-18T17:45:14.366Z,99017.97
2022-10-18T17:47:41.612Z,98972.34
2022-10-18T17:50:08.977Z,98984.09
2022-10-18T17:55:19.178Z,98998.00
2022-10-18T17:57:46.077Z,99001.31
2022-10-18T18:00:13.576Z,98988.56
2022-10-18T18:02:42.357Z,98991.66
2022-10-18T18:05:10.515Z,98989.63
2022-10-18T18:07:37.490Z,98966.84
2022-10-18T18:10:05.084Z,98982.31
2022-10-18T18:12:32.890Z,98977.41
2022-10-18T18:15:00.253Z,98981.66
2022-10-18T18:17:34.114Z,99002.16
2022-10-18T18:20:01.895Z,98988.25
2022-10-18T18:22:29.139Z,98966.63
2022-10-18T18:24:56.248Z,98984.97
2022-10-18T18:27:23.491Z,98992.63
2022-10-18T18:29:50.483Z,98975.50
2022-10-18T18:32:17.281Z,98989.00
2022-10-18T18:34:44.123Z,98993.22
2022-10-18T18:37:10.974Z,98985.28
2022-10-18T18:39:38.358Z,98968.53
2022-10-18T18:42:06.109Z,99001.06
2022-10-18T18:44:33.634Z,98988.53
2022-10-18T18:47:01.759Z,98959.50
2022-10-18T18:49:28.869Z,98973.38
2022-10-18T18:51:55.719Z,98984.63
2022-10-18T18:54:23.068Z,98975.19
2022-10-18T18:56:50.024Z,99006.38
2022-10-18T18:59:17.127Z,98981.25
2022-10-18T19:01:46.539Z,98983.38
2022-10-18T19:04:13.421Z,98964.31
2022-10-18T19:06:46.627Z,98994.19
2022-10-18T19:09:16.475Z,98971.91
2022-10-18T19:11:43.265Z,98981.53
2022-10-18T19:14:10.134Z,98988.66
2022-10-18T19:16:48.003Z,98982.84
2022-10-18T19:19:19.973Z,98977.81
2022-10-18T19:21:52.380Z,98970.38
2022-10-18T19:24:21.671Z,98972.63
2022-10-18T19:26:51.073Z,98947.72
2022-10-18T19:29:23.068Z,98959.81
2022-10-18T19:31:58.322Z,98956.50
2022-10-18T19:34:48.402Z,98980.47
2022-10-18T19:37:16.694Z,99008.50
2022-10-18T19:39:43.929Z,98969.97
2022-10-18T19:42:16.008Z,98991.34
2022-10-18T19:44:45.553Z,98975.75
2022-10-18T19:47:14.410Z,98959.31
2022-10-18T19:49:41.418Z,98970.22
2022-10-18T19:52:08.344Z,98957.09
2022-10-18T19:54:35.327Z,98961.75
2022-10-18T19:57:02.385Z,98963.03
2022-10-18T19:59:29.406Z,98949.47
2022-10-18T20:01:56.394Z,98953.38
2022-10-18T20:04:23.264Z,98943.50
2022-10-18T20:06:50.054Z,98956.97
2022-10-18T20:09:19.737Z,98957.94
2022-10-18T20:11:48.119Z,98950.63
2022-10-18T20:14:15.159Z,98962.28
2022-10-18T20:16:41.983Z,98961.59
2022-10-18T20:19:10.855Z,98944.09
2022-10-18T20:21:37.724Z,98955.38
2022-10-18T20:24:05.828Z,98942.84
2022-10-18T20:26:45.781Z,98951.47
2022-10-18T20:29:12.808Z,98929.31
2022-10-18T20:31:39.797Z,98934.69
2022-10-18T20:34:08.886Z,98939.97
2022-10-18T20:36:35.765Z,98938.78
2022-10-18T20:39:03.671Z,98921.31
2022-10-18T20:41:35.199Z,98933.28
2022-10-18T20:44:07.991Z,98913.34
2022-10-18T20:46:37.103Z,98943.22
2022-10-18T20:49:05.488Z,98919.63
2022-10-18T20:51:33.065Z,98931.94
2022-10-18T20:56:32.763Z,98918.72
2022-10-18T20:59:07.832Z,98918.63
2022-10-18T21:01:36.105Z,98894.31
2022-10-18T21:04:10.937Z,98930.69
2022-10-18T21:06:40.650Z,98890.91
2022-10-18T21:09:11.960Z,98895.66
2022-10-18T21:11:42.665Z,98910.03
2022-10-18T21:14:18.402Z,98931.81
2022-10-18T21:16:46.326Z,98913.53
2022-10-18T21:19:20.318Z,98912.69
2022-10-18T21:21:50.578Z,98901.44
2022-10-18T21:24:18.776Z,98919.31
2022-10-18T21:26:45.892Z,98906.75
2022-10-18T21:29:13.126Z,98908.06
2022-10-18T21:32:03.102Z,98913.84
2022-10-18T21:34:30.025Z,98933.88
2022-10-18T21:36:56.796Z,98930.56
2022-10-18T21:41:51.511Z,98907.22
2022-10-18T21:44:18.583Z,98890.19
2022-10-18T21:46:45.747Z,98919.22
2022-10-18T21:49:14.119Z,98910.25
2022-10-18T21:51:41.044Z,98925.28
2022-10-18T21:54:12.899Z,98918.66
2022-10-18T21:56:40.005Z,98911.22
2022-10-18T21:59:07.163Z,98903.59
2022-10-18T22:01:36.877Z,98916.41
2022-10-18T22:04:16.344Z,98907.31
2022-10-18T22:06:43.314Z,98914.78
2022-10-18T22:09:10.497Z,98905.41
2022-10-18T22:11:44.382Z,98901.19
2022-10-18T22:14:11.589Z,98918.91
2022-10-18T22:16:38.460Z,98888.06
2022-10-18T22:19:07.131Z,98904.09
2022-10-18T22:21:35.015Z,98878.56
2022-10-18T22:24:06.537Z,98899.13
2022-10-18T22:26:38.470Z,98898.50
2022-10-18T22:29:14.662Z,98877.56
2022-10-18T22:31:47.037Z,98898.66
2022-10-18T22:34:20.189Z,98872.25
2022-10-18T22:36:49.723Z,98875.09
2022-10-18T22:39:17.332Z,98870.50
2022-10-18T22:41:44.446Z,98867.72
2022-10-18T22:44:13.123Z,98877.66
2022-10-18T22:46:40.989Z,98874.28
2022-10-18T22:49:08.551Z,98878.16
2022-10-18T22:54:07.865Z,98888.66
2022-10-18T22:56:35.008Z,98862.28
2022-10-18T22:59:02.893Z,98865.50
2022-10-18T23:01:29.718Z,98879.06
2022-10-18T23:03:58.769Z,98859.28
2022-10-18T23:06:33.933Z,98855.16
2022-10-18T23:09:04.008Z,98869.56
2022-10-18T23:11:31.584Z,98859.72
2022-10-18T23:13:58.402Z,98859.28
2022-10-18T23:16:25.276Z,98863.44
2022-10-18T23:18:54.407Z,98869.06
2022-10-18T23:21:22.682Z,98846.72
2022-10-18T23:23:50.147Z,98844.41
2022-10-18T23:26:19.585Z,98874.50
2022-10-18T23:28:47.935Z,98861.13
2022-10-18T23:31:16.084Z,98853.78
2022-10-18T23:33:42.897Z,98869.47
2022-10-18T23:36:10.020Z,98866.66
2022-10-18T23:38:39.237Z,98850.69
2022-10-18T23:41:08.166Z,98850.03
2022-10-18T23:43:35.215Z,98863.09
2022-10-18T23:46:02.718Z,98845.41
2022-10-18T23:48:29.789Z,98849.69
2022-10-18T23:50:57.367Z,98843.72
2022-10-18T23:53:24.487Z,98818.13
2022-10-18T23:55:59.781Z,98835.72
2022-10-18T23:58:28.077Z,98844.69
